Time;durP1;ratioP1;P1;durP2;ratioP2;P2;SDS_P1;SDS_P2;PMS_P1;PMS_P2;Temp;Humidity;BMP_temperature;BMP_pressure;BME280_temperature;BME280_humidity;BME280_pressure;Samples;Min_cycle;Max_cycle;Signal;HPM_P1;HPM_P2
2023/08/19 00:03:33;;;;;;;13.88;8.63;;;;;;;24.44;67.60;100370.31;41586823;28;20034;-66
2023/08/19 00:23:34;;;;;;;13.30;8.52;;;;;;;24.46;67.21;100363.06;41572969;28;20073;-67
2023/08/19 00:43:36;;;;;;;11.20;7.75;;;;;;;23.75;67.48;100286.63;41564900;28;20057;-67
2023/08/19 01:03:36;;;;;;;10.13;7.95;;;;;;;24.07;66.46;100355.16;41531023;28;20050;-66
2023/08/19 01:23:42;;;;;;;8.90;7.82;;;;;;;24.13;66.75;100377.53;41562360;28;20056;-66
2023/08/19 01:43:44;;;;;;;11.13;8.40;;;;;;;24.02;67.25;100385.63;41526706;28;20041;-65
2023/08/19 02:03:44;;;;;;;10.45;8.13;;;;;;;23.90;67.20;100411.31;41508394;28;20454;-67
2023/08/19 02:23:44;;;;;;;9.93;8.10;;;;;;;23.81;67.24;100392.69;41536635;28;20094;-66
2023/08/19 02:43:45;;;;;;;11.00;8.00;;;;;;;23.63;67.03;100349.34;41561752;28;20046;-66
2023/08/19 03:03:45;;;;;;;11.25;8.65;;;;;;;23.88;66.65;100357.75;41574727;28;20515;-65
2023/08/19 03:23:47;;;;;;;10.23;7.75;;;;;;;23.83;66.09;100369.56;41590954;28;20046;-67
2023/08/19 03:43:47;;;;;;;9.13;7.43;;;;;;;23.78;65.78;100387.66;41594786;28;20053;-66
2023/08/19 04:03:48;;;;;;;11.90;7.50;;;;;;;23.57;65.91;100398.31;41581180;28;20034;-65
2023/08/19 04:23:49;;;;;;;9.63;6.97;;;;;;;23.54;65.64;100409.13;41569400;28;20424;-66
2023/08/19 04:43:50;;;;;;;26.60;7.40;;;;;;;23.67;65.42;100395.69;41568912;28;20068;-67
2023/08/19 05:03:50;;;;;;;7.10;6.30;;;;;;;23.69;65.21;100422.00;41513548;28;20453;-67
2023/08/19 05:23:51;;;;;;;7.50;5.97;;;;;;;23.67;65.21;100451.22;41544789;28;20044;-66
2023/08/19 05:43:53;;;;;;;7.95;5.43;;;;;;;23.70;65.26;100436.88;41524319;28;20045;-68
2023/08/19 06:03:53;;;;;;;6.57;5.57;;;;;;;24.26;63.86;100526.28;41563250;28;20038;-67
2023/08/19 06:23:54;;;;;;;7.35;5.50;;;;;;;23.58;64.72;100606.16;41545316;28;20050;-67
2023/08/19 06:43:57;;;;;;;11.02;7.57;;;;;;;23.68;63.42;100667.03;41552714;28;20037;-69
2023/08/19 07:04:00;;;;;;;6.45;5.65;;;;;;;24.50;60.97;100717.47;41546846;28;20034;-68
2023/08/19 07:24:01;;;;;;;5.78;4.70;;;;;;;24.87;60.33;100730.19;41518507;28;20183;-70
2023/08/19 07:44:02;;;;;;;8.23;4.60;;;;;;;24.94;60.90;100718.91;41552490;28;20033;-70
2023/08/19 08:04:04;;;;;;;4.65;3.65;;;;;;;25.05;60.59;100698.59;41557932;28;20042;-68
2023/08/19 08:24:05;;;;;;;6.32;4.57;;;;;;;25.10;60.71;100657.44;41564978;28;20057;-68
2023/08/19 08:44:08;;;;;;;6.10;4.32;;;;;;;25.12;60.05;100591.09;41538169;28;20511;-72
2023/08/19 09:04:11;;;;;;;5.53;5.03;;;;;;;25.41;61.13;100575.19;41567723;28;20049;-71
2023/08/19 09:24:17;;;;;;;6.18;4.80;;;;;;;25.47;61.63;100615.34;41587541;28;20033;-74
2023/08/19 09:44:18;;;;;;;8.85;6.38;;;;;;;24.41;65.68;100621.19;41488666;28;20060;-74
2023/08/19 10:04:22;;;;;;;7.35;5.55;;;;;;;24.39;65.18;100592.22;41463524;28;20061;-71
2023/08/19 10:24:22;;;;;;;7.90;6.80;;;;;;;24.27;67.92;100596.75;41543616;28;20408;-71
2023/08/19 10:44:31;;;;;;;9.65;6.93;;;;;;;24.10;69.81;100568.31;41579569;28;20053;-75
2023/08/19 11:04:32;;;;;;;7.32;6.53;;;;;;;24.45;68.80;100557.25;41399808;28;20065;-73
2023/08/19 11:24:34;;;;;;;8.00;6.78;;;;;;;25.03;69.31;100550.34;41530627;28;20041;-73
2023/08/19 11:44:35;;;;;;;7.45;6.15;;;;;;;25.48;66.37;100538.31;41477659;28;20030;-70
2023/08/19 12:04:35;;;;;;;6.70;5.78;;;;;;;26.27;64.28;100549.47;41492219;28;20049;-70
2023/08/19 12:24:36;;;;;;;8.60;5.90;;;;;;;26.78;61.57;100546.34;41439760;28;20042;-77
2023/08/19 12:44:36;;;;;;;6.50;5.20;;;;;;;26.87;58.64;100505.59;41483176;28;20037;-77
2023/08/19 13:04:37;;;;;;;6.80;4.60;;;;;;;26.96;56.44;100499.34;41536438;28;20057;-69
2023/08/19 13:24:37;;;;;;;6.85;5.25;;;;;;;27.25;55.36;100497.41;41534727;28;20054;-69
2023/08/19 13:44:38;;;;;;;5.30;4.80;;;;;;;27.29;54.25;100490.75;41495279;28;20058;-70
2023/08/19 14:04:38;;;;;;;8.65;5.63;;;;;;;27.90;53.56;100472.13;41458075;28;20037;-71
2023/08/19 14:24:39;;;;;;;5.78;5.18;;;;;;;27.57;53.57;100451.53;41461192;28;20401;-72
2023/08/19 14:44:40;;;;;;;5.93;5.40;;;;;;;27.41;54.98;100451.47;41464474;28;20500;-70
2023/08/19 15:04:40;;;;;;;6.25;5.65;;;;;;;27.37;55.34;100453.59;41534606;28;20053;-72
2023/08/19 15:24:41;;;;;;;6.22;5.63;;;;;;;27.30;55.31;100449.91;41528600;28;21186;-69
2023/08/19 15:44:42;;;;;;;9.23;5.80;;;;;;;27.31;55.68;100452.38;41533563;28;20504;-76
2023/08/19 16:04:43;;;;;;;5.88;5.22;;;;;;;27.27;55.38;100442.22;41558069;28;20684;-75
2023/08/19 16:24:43;;;;;;;6.63;5.45;;;;;;;27.08;54.54;100412.22;41558026;28;20033;-74
2023/08/19 16:44:45;;;;;;;7.82;5.35;;;;;;;27.28;53.60;100470.47;41555375;28;20049;-75
2023/08/19 17:04:46;;;;;;;5.93;5.18;;;;;;;26.93;53.82;100464.31;41447497;28;20432;-74
2023/08/19 17:24:47;;;;;;;9.17;5.90;;;;;;;26.71;54.14;100476.19;41532592;28;20067;-75
2023/08/19 17:44:53;;;;;;;5.53;4.97;;;;;;;26.60;56.26;100466.63;41529454;28;20138;-68
2023/08/19 18:04:56;;;;;;;8.32;6.40;;;;;;;26.58;56.19;100488.03;41525425;28;20053;-81
2023/08/19 18:24:56;;;;;;;24.75;18.15;;;;;;;26.58;56.43;100524.41;41485941;28;20041;-78
2023/08/19 18:44:57;;;;;;;11.73;8.63;;;;;;;25.92;57.86;100558.97;41530500;28;20071;-80
2023/08/19 19:05:00;;;;;;;9.38;7.60;;;;;;;25.50;60.72;100551.41;41525323;28;20040;-79
2023/08/19 19:25:04;;;;;;;15.07;8.68;;;;;;;25.57;60.59;100542.78;41506426;28;20396;-76
2023/08/19 19:45:06;;;;;;;11.57;9.45;;;;;;;25.48;61.30;100570.13;41515521;28;20033;-73
2023/08/19 20:05:07;;;;;;;12.50;9.25;;;;;;;25.25;62.42;100567.78;41492694;28;20050;-69
2023/08/19 20:25:13;;;;;;;11.57;8.88;;;;;;;25.67;60.75;100594.91;41522020;28;20101;-68
2023/08/19 20:45:14;;;;;;;10.55;9.27;;;;;;;25.47;61.75;100584.34;41563262;28;20038;-69
2023/08/19 21:05:15;;;;;;;16.80;9.45;;;;;;;25.29;63.10;100591.34;41608227;28;20500;-70
2023/08/19 21:25:16;;;;;;;12.35;8.85;;;;;;;25.24;63.40;100635.00;41591224;28;20037;-68
2023/08/19 21:45:17;;;;;;;14.63;9.68;;;;;;;24.93;63.46;100615.75;41599180;28;20432;-70
2023/08/19 22:05:18;;;;;;;10.85;9.80;;;;;;;25.09;63.13;100653.13;41582801;28;20125;-69
2023/08/19 22:25:20;;;;;;;13.80;9.35;;;;;;;24.77;63.40;100616.28;41615746;28;20451;-68
2023/08/19 22:45:21;;;;;;;11.82;8.93;;;;;;;24.81;63.97;100636.22;41557111;28;20068;-68
2023/08/19 23:05:21;;;;;;;14.30;9.18;;;;;;;24.63;64.17;100612.19;41557058;28;20527;-68
2023/08/19 23:25:21;;;;;;;14.60;8.25;;;;;;;24.63;64.02;100614.81;41598592;28;20068;-67
2023/08/19 23:45:22;;;;;;;8.80;7.60;;;;;;;24.57;63.84;100604.78;41598712;28;20087;-66
